sensor_id;sensor_type;location;lat;lon;timestamp;P1;durP1;ratioP1;P2;durP2;ratioP2
71183;SDS011;58887;51.980;4.464;2022-07-23T00:01:30;2.44;;;2.44;;
71183;SDS011;58887;51.980;4.464;2022-07-23T00:03:55;2.85;;;2.85;;
71183;SDS011;58887;51.980;4.464;2022-07-23T00:06:22;2.75;;;2.75;;
71183;SDS011;58887;51.980;4.464;2022-07-23T00:08:48;2.68;;;2.68;;
71183;SDS011;58887;51.980;4.464;2022-07-23T00:11:14;2.99;;;2.99;;
71183;SDS011;58887;51.980;4.464;2022-07-23T00:13:40;2.99;;;2.99;;
71183;SDS011;58887;51.980;4.464;2022-07-23T00:16:06;3.08;;;3.08;;
71183;SDS011;58887;51.980;4.464;2022-07-23T00:18:31;3.22;;;3.22;;
71183;SDS011;58887;51.980;4.464;2022-07-23T00:20:57;3.11;;;3.11;;
71183;SDS011;58887;51.980;4.464;2022-07-23T00:23:22;3.08;;;3.08;;
71183;SDS011;58887;51.980;4.464;2022-07-23T00:25:50;2.95;;;2.95;;
71183;SDS011;58887;51.980;4.464;2022-07-23T00:28:16;2.70;;;2.70;;
71183;SDS011;58887;51.980;4.464;2022-07-23T00:30:43;2.87;;;2.87;;
71183;SDS011;58887;51.980;4.464;2022-07-23T00:33:08;2.56;;;2.56;;
71183;SDS011;58887;51.980;4.464;2022-07-23T00:35:35;2.40;;;2.40;;
71183;SDS011;58887;51.980;4.464;2022-07-23T00:38:03;2.67;;;2.67;;
71183;SDS011;58887;51.980;4.464;2022-07-23T00:40:30;2.58;;;2.58;;
71183;SDS011;58887;51.980;4.464;2022-07-23T00:42:56;2.94;;;2.94;;
71183;SDS011;58887;51.980;4.464;2022-07-23T00:45:22;2.85;;;2.85;;
71183;SDS011;58887;51.980;4.464;2022-07-23T00:47:48;2.87;;;2.87;;
71183;SDS011;58887;51.980;4.464;2022-07-23T00:50:13;2.77;;;2.77;;
71183;SDS011;58887;51.980;4.464;2022-07-23T00:52:39;3.01;;;3.01;;
71183;SDS011;58887;51.980;4.464;2022-07-23T00:55:06;3.19;;;3.19;;
71183;SDS011;58887;51.980;4.464;2022-07-23T00:57:34;2.93;;;2.93;;
71183;SDS011;58887;51.980;4.464;2022-07-23T01:00:01;3.08;;;3.08;;
71183;SDS011;58887;51.980;4.464;2022-07-23T01:02:27;3.28;;;3.28;;
71183;SDS011;58887;51.980;4.464;2022-07-23T01:04:53;3.23;;;3.23;;
71183;SDS011;58887;51.980;4.464;2022-07-23T01:07:19;2.94;;;2.94;;
71183;SDS011;58887;51.980;4.464;2022-07-23T01:09:46;2.97;;;2.97;;
71183;SDS011;58887;51.980;4.464;2022-07-23T01:12:12;2.69;;;2.69;;
71183;SDS011;58887;51.980;4.464;2022-07-23T01:14:38;3.15;;;3.15;;
71183;SDS011;58887;51.980;4.464;2022-07-23T01:17:04;3.13;;;3.13;;
71183;SDS011;58887;51.980;4.464;2022-07-23T01:19:30;3.06;;;3.06;;
71183;SDS011;58887;51.980;4.464;2022-07-23T01:21:56;3.09;;;3.09;;
71183;SDS011;58887;51.980;4.464;2022-07-23T01:24:23;2.95;;;2.95;;
71183;SDS011;58887;51.980;4.464;2022-07-23T01:26:50;2.90;;;2.90;;
71183;SDS011;58887;51.980;4.464;2022-07-23T01:29:15;3.00;;;3.00;;
71183;SDS011;58887;51.980;4.464;2022-07-23T01:31:42;2.92;;;2.92;;
71183;SDS011;58887;51.980;4.464;2022-07-23T01:34:08;2.89;;;2.89;;
71183;SDS011;58887;51.980;4.464;2022-07-23T01:36:34;2.96;;;2.96;;
71183;SDS011;58887;51.980;4.464;2022-07-23T01:39:01;2.91;;;2.91;;
71183;SDS011;58887;51.980;4.464;2022-07-23T01:41:28;3.09;;;3.09;;
71183;SDS011;58887;51.980;4.464;2022-07-23T01:43:54;3.34;;;3.34;;
71183;SDS011;58887;51.980;4.464;2022-07-23T01:46:20;2.91;;;2.91;;
71183;SDS011;58887;51.980;4.464;2022-07-23T01:48:45;3.13;;;3.13;;
71183;SDS011;58887;51.980;4.464;2022-07-23T01:51:10;3.24;;;3.24;;
71183;SDS011;58887;51.980;4.464;2022-07-23T01:53:36;2.86;;;2.86;;
71183;SDS011;58887;51.980;4.464;2022-07-23T01:56:02;2.84;;;2.84;;
71183;SDS011;58887;51.980;4.464;2022-07-23T01:58:28;2.96;;;2.96;;
71183;SDS011;58887;51.980;4.464;2022-07-23T02:00:54;3.18;;;3.18;;
71183;SDS011;58887;51.980;4.464;2022-07-23T02:03:21;3.19;;;3.19;;
71183;SDS011;58887;51.980;4.464;2022-07-23T02:05:47;3.22;;;3.22;;
71183;SDS011;58887;51.980;4.464;2022-07-23T02:08:13;2.99;;;2.99;;
71183;SDS011;58887;51.980;4.464;2022-07-23T02:10:39;3.20;;;3.20;;
71183;SDS011;58887;51.980;4.464;2022-07-23T02:13:04;2.95;;;2.95;;
71183;SDS011;58887;51.980;4.464;2022-07-23T02:15:31;3.15;;;3.15;;
71183;SDS011;58887;51.980;4.464;2022-07-23T02:17:57;3.01;;;3.01;;
71183;SDS011;58887;51.980;4.464;2022-07-23T02:20:22;3.13;;;3.13;;
71183;SDS011;58887;51.980;4.464;2022-07-23T02:22:48;2.81;;;2.81;;
71183;SDS011;58887;51.980;4.464;2022-07-23T02:25:14;2.80;;;2.80;;
71183;SDS011;58887;51.980;4.464;2022-07-23T02:27:39;2.89;;;2.89;;
71183;SDS011;58887;51.980;4.464;2022-07-23T02:30:06;3.04;;;3.04;;
71183;SDS011;58887;51.980;4.464;2022-07-23T02:32:32;3.07;;;3.07;;
71183;SDS011;58887;51.980;4.464;2022-07-23T02:34:58;3.30;;;3.30;;
71183;SDS011;58887;51.980;4.464;2022-07-23T02:37:23;3.20;;;3.20;;
71183;SDS011;58887;51.980;4.464;2022-07-23T02:39:49;3.23;;;3.23;;
71183;SDS011;58887;51.980;4.464;2022-07-23T02:42:15;3.01;;;3.01;;
71183;SDS011;58887;51.980;4.464;2022-07-23T02:44:40;2.99;;;2.99;;
71183;SDS011;58887;51.980;4.464;2022-07-23T02:47:06;2.91;;;2.91;;
71183;SDS011;58887;51.980;4.464;2022-07-23T02:49:31;3.02;;;3.02;;
71183;SDS011;58887;51.980;4.464;2022-07-23T02:51:57;3.02;;;3.02;;
71183;SDS011;58887;51.980;4.464;2022-07-23T02:54:22;3.26;;;3.26;;
71183;SDS011;58887;51.980;4.464;2022-07-23T02:56:48;2.92;;;2.92;;
71183;SDS011;58887;51.980;4.464;2022-07-23T02:59:15;2.96;;;2.96;;
71183;SDS011;58887;51.980;4.464;2022-07-23T03:01:41;2.99;;;2.99;;
71183;SDS011;58887;51.980;4.464;2022-07-23T03:04:06;3.01;;;3.01;;
71183;SDS011;58887;51.980;4.464;2022-07-23T03:06:32;3.28;;;3.28;;
71183;SDS011;58887;51.980;4.464;2022-07-23T03:08:57;3.20;;;3.20;;
71183;SDS011;58887;51.980;4.464;2022-07-23T03:11:23;3.24;;;3.24;;
71183;SDS011;58887;51.980;4.464;2022-07-23T03:13:48;3.53;;;3.53;;
71183;SDS011;58887;51.980;4.464;2022-07-23T03:16:13;3.23;;;3.23;;
71183;SDS011;58887;51.980;4.464;2022-07-23T03:18:39;3.00;;;3.00;;
71183;SDS011;58887;51.980;4.464;2022-07-23T03:21:04;3.15;;;3.15;;
71183;SDS011;58887;51.980;4.464;2022-07-23T03:23:30;3.34;;;3.34;;
71183;SDS011;58887;51.980;4.464;2022-07-23T03:25:55;3.54;;;3.54;;
71183;SDS011;58887;51.980;4.464;2022-07-23T03:28:20;3.32;;;3.32;;
71183;SDS011;58887;51.980;4.464;2022-07-23T03:30:46;3.39;;;3.39;;
71183;SDS011;58887;51.980;4.464;2022-07-23T03:33:16;3.18;;;3.18;;
71183;SDS011;58887;51.980;4.464;2022-07-23T03:35:44;3.48;;;3.48;;
71183;SDS011;58887;51.980;4.464;2022-07-23T03:38:10;3.69;;;3.69;;
71183;SDS011;58887;51.980;4.464;2022-07-23T03:40:36;3.68;;;3.68;;
71183;SDS011;58887;51.980;4.464;2022-07-23T03:43:01;3.70;;;3.70;;
71183;SDS011;58887;51.980;4.464;2022-07-23T03:45:27;3.74;;;3.74;;
71183;SDS011;58887;51.980;4.464;2022-07-23T03:47:53;3.71;;;3.71;;
71183;SDS011;58887;51.980;4.464;2022-07-23T03:50:18;3.77;;;3.77;;
71183;SDS011;58887;51.980;4.464;2022-07-23T03:52:44;3.90;;;3.90;;
71183;SDS011;58887;51.980;4.464;2022-07-23T03:55:10;3.98;;;3.98;;
71183;SDS011;58887;51.980;4.464;2022-07-23T03:57:35;4.07;;;4.07;;
71183;SDS011;58887;51.980;4.464;2022-07-23T04:00:02;3.83;;;3.83;;
71183;SDS011;58887;51.980;4.464;2022-07-23T04:02:30;3.68;;;3.68;;
71183;SDS011;58887;51.980;4.464;2022-07-23T04:04:55;3.75;;;3.75;;
71183;SDS011;58887;51.980;4.464;2022-07-23T04:07:21;3.95;;;3.95;;
71183;SDS011;58887;51.980;4.464;2022-07-23T04:09:47;3.82;;;3.82;;
71183;SDS011;58887;51.980;4.464;2022-07-23T04:12:12;4.02;;;4.02;;
71183;SDS011;58887;51.980;4.464;2022-07-23T04:14:38;4.39;;;4.39;;
71183;SDS011;58887;51.980;4.464;2022-07-23T04:17:03;3.95;;;3.95;;
71183;SDS011;58887;51.980;4.464;2022-07-23T04:19:29;3.81;;;3.81;;
71183;SDS011;58887;51.980;4.464;2022-07-23T04:21:55;3.61;;;3.61;;
71183;SDS011;58887;51.980;4.464;2022-07-23T04:24:22;3.94;;;3.94;;
71183;SDS011;58887;51.980;4.464;2022-07-23T04:26:47;4.08;;;4.08;;
71183;SDS011;58887;51.980;4.464;2022-07-23T04:29:13;4.25;;;4.25;;
71183;SDS011;58887;51.980;4.464;2022-07-23T04:31:38;4.17;;;4.17;;
71183;SDS011;58887;51.980;4.464;2022-07-23T04:34:03;4.29;;;4.29;;
71183;SDS011;58887;51.980;4.464;2022-07-23T04:36:29;4.56;;;4.56;;
71183;SDS011;58887;51.980;4.464;2022-07-23T04:38:55;4.25;;;4.25;;
71183;SDS011;58887;51.980;4.464;2022-07-23T04:41:20;4.24;;;4.24;;
71183;SDS011;58887;51.980;4.464;2022-07-23T04:43:46;4.41;;;4.41;;
71183;SDS011;58887;51.980;4.464;2022-07-23T04:46:11;4.74;;;4.74;;
71183;SDS011;58887;51.980;4.464;2022-07-23T04:48:37;5.14;;;5.14;;
71183;SDS011;58887;51.980;4.464;2022-07-23T04:51:03;5.13;;;5.13;;
71183;SDS011;58887;51.980;4.464;2022-07-23T04:53:29;5.16;;;5.16;;
71183;SDS011;58887;51.980;4.464;2022-07-23T04:55:54;5.06;;;5.06;;
71183;SDS011;58887;51.980;4.464;2022-07-23T04:58:20;5.02;;;5.02;;
71183;SDS011;58887;51.980;4.464;2022-07-23T05:00:46;4.98;;;4.98;;
71183;SDS011;58887;51.980;4.464;2022-07-23T05:03:12;4.85;;;4.85;;
71183;SDS011;58887;51.980;4.464;2022-07-23T05:05:37;5.23;;;5.23;;
71183;SDS011;58887;51.980;4.464;2022-07-23T05:08:03;5.02;;;5.02;;
71183;SDS011;58887;51.980;4.464;2022-07-23T05:10:29;4.95;;;4.95;;
71183;SDS011;58887;51.980;4.464;2022-07-23T05:12:55;4.98;;;4.98;;
71183;SDS011;58887;51.980;4.464;2022-07-23T05:15:20;5.09;;;5.09;;
71183;SDS011;58887;51.980;4.464;2022-07-23T05:17:46;5.16;;;5.16;;
71183;SDS011;58887;51.980;4.464;2022-07-23T05:20:11;5.39;;;5.39;;
71183;SDS011;58887;51.980;4.464;2022-07-23T05:22:38;5.73;;;5.73;;
71183;SDS011;58887;51.980;4.464;2022-07-23T05:25:04;5.97;;;5.97;;
71183;SDS011;58887;51.980;4.464;2022-07-23T05:27:29;6.28;;;6.28;;
71183;SDS011;58887;51.980;4.464;2022-07-23T05:29:55;5.74;;;5.74;;
71183;SDS011;58887;51.980;4.464;2022-07-23T05:32:21;5.37;;;5.37;;
71183;SDS011;58887;51.980;4.464;2022-07-23T05:34:46;5.88;;;5.88;;
71183;SDS011;58887;51.980;4.464;2022-07-23T05:37:12;6.47;;;6.46;;
71183;SDS011;58887;51.980;4.464;2022-07-23T05:39:37;6.17;;;6.17;;
71183;SDS011;58887;51.980;4.464;2022-07-23T05:42:02;6.23;;;6.23;;
71183;SDS011;58887;51.980;4.464;2022-07-23T05:44:28;6.66;;;6.66;;
71183;SDS011;58887;51.980;4.464;2022-07-23T05:46:53;6.19;;;6.19;;
71183;SDS011;58887;51.980;4.464;2022-07-23T05:49:19;6.10;;;6.10;;
71183;SDS011;58887;51.980;4.464;2022-07-23T05:51:44;5.88;;;5.88;;
71183;SDS011;58887;51.980;4.464;2022-07-23T05:54:10;5.85;;;5.85;;
71183;SDS011;58887;51.980;4.464;2022-07-23T05:56:35;5.75;;;5.75;;
71183;SDS011;58887;51.980;4.464;2022-07-23T05:59:01;5.55;;;5.55;;
71183;SDS011;58887;51.980;4.464;2022-07-23T06:01:27;5.62;;;5.62;;
71183;SDS011;58887;51.980;4.464;2022-07-23T06:03:52;5.80;;;5.80;;
71183;SDS011;58887;51.980;4.464;2022-07-23T06:06:17;5.22;;;5.22;;
71183;SDS011;58887;51.980;4.464;2022-07-23T06:08:43;5.71;;;5.71;;
71183;SDS011;58887;51.980;4.464;2022-07-23T06:11:08;5.58;;;5.58;;
71183;SDS011;58887;51.980;4.464;2022-07-23T06:13:34;6.04;;;6.04;;
71183;SDS011;58887;51.980;4.464;2022-07-23T06:16:00;5.67;;;5.67;;
71183;SDS011;58887;51.980;4.464;2022-07-23T06:18:25;4.95;;;4.95;;
71183;SDS011;58887;51.980;4.464;2022-07-23T06:20:51;4.83;;;4.83;;
71183;SDS011;58887;51.980;4.464;2022-07-23T06:23:16;5.15;;;5.15;;
71183;SDS011;58887;51.980;4.464;2022-07-23T06:25:42;5.14;;;5.14;;
71183;SDS011;58887;51.980;4.464;2022-07-23T06:28:07;4.75;;;4.75;;
71183;SDS011;58887;51.980;4.464;2022-07-23T06:30:33;4.35;;;4.35;;
71183;SDS011;58887;51.980;4.464;2022-07-23T06:32:58;3.89;;;3.89;;
71183;SDS011;58887;51.980;4.464;2022-07-23T06:35:24;3.65;;;3.65;;
71183;SDS011;58887;51.980;4.464;2022-07-23T06:37:50;3.97;;;3.97;;
71183;SDS011;58887;51.980;4.464;2022-07-23T06:40:15;4.15;;;4.15;;
71183;SDS011;58887;51.980;4.464;2022-07-23T06:42:41;3.62;;;3.62;;
71183;SDS011;58887;51.980;4.464;2022-07-23T06:45:06;3.36;;;3.36;;
71183;SDS011;58887;51.980;4.464;2022-07-23T06:47:32;3.14;;;3.14;;
71183;SDS011;58887;51.980;4.464;2022-07-23T06:49:58;2.69;;;2.69;;
71183;SDS011;58887;51.980;4.464;2022-07-23T06:52:24;2.55;;;2.55;;
71183;SDS011;58887;51.980;4.464;2022-07-23T06:54:51;2.29;;;2.29;;
71183;SDS011;58887;51.980;4.464;2022-07-23T06:57:17;2.72;;;2.72;;
71183;SDS011;58887;51.980;4.464;2022-07-23T06:59:43;2.81;;;2.81;;
71183;SDS011;58887;51.980;4.464;2022-07-23T07:02:09;2.70;;;2.70;;
71183;SDS011;58887;51.980;4.464;2022-07-23T07:04:34;2.96;;;2.96;;
71183;SDS011;58887;51.980;4.464;2022-07-23T07:07:00;3.01;;;3.01;;
71183;SDS011;58887;51.980;4.464;2022-07-23T07:09:26;3.05;;;3.05;;
71183;SDS011;58887;51.980;4.464;2022-07-23T07:11:51;2.86;;;2.86;;
71183;SDS011;58887;51.980;4.464;2022-07-23T07:14:17;2.61;;;2.61;;
71183;SDS011;58887;51.980;4.464;2022-07-23T07:16:42;2.21;;;2.21;;
71183;SDS011;58887;51.980;4.464;2022-07-23T07:19:08;2.22;;;2.22;;
71183;SDS011;58887;51.980;4.464;2022-07-23T07:21:33;2.03;;;2.03;;
71183;SDS011;58887;51.980;4.464;2022-07-23T07:23:59;2.05;;;2.05;;
71183;SDS011;58887;51.980;4.464;2022-07-23T07:26:25;2.07;;;2.07;;
71183;SDS011;58887;51.980;4.464;2022-07-23T07:28:50;2.34;;;2.34;;
71183;SDS011;58887;51.980;4.464;2022-07-23T07:31:16;2.18;;;2.18;;
71183;SDS011;58887;51.980;4.464;2022-07-23T07:33:42;2.61;;;2.61;;
71183;SDS011;58887;51.980;4.464;2022-07-23T07:36:07;2.65;;;2.65;;
71183;SDS011;58887;51.980;4.464;2022-07-23T07:38:33;2.72;;;2.72;;
71183;SDS011;58887;51.980;4.464;2022-07-23T07:40:58;2.99;;;2.99;;
71183;SDS011;58887;51.980;4.464;2022-07-23T07:43:24;3.11;;;3.11;;
71183;SDS011;58887;51.980;4.464;2022-07-23T07:45:49;3.67;;;3.67;;
71183;SDS011;58887;51.980;4.464;2022-07-23T07:48:14;3.99;;;3.99;;
71183;SDS011;58887;51.980;4.464;2022-07-23T07:50:40;4.49;;;4.49;;
71183;SDS011;58887;51.980;4.464;2022-07-23T07:53:05;4.10;;;4.10;;
71183;SDS011;58887;51.980;4.464;2022-07-23T07:55:31;4.62;;;4.62;;
71183;SDS011;58887;51.980;4.464;2022-07-23T07:57:57;4.35;;;4.35;;
71183;SDS011;58887;51.980;4.464;2022-07-23T08:00:22;3.96;;;3.96;;
71183;SDS011;58887;51.980;4.464;2022-07-23T08:02:49;4.32;;;4.32;;
71183;SDS011;58887;51.980;4.464;2022-07-23T08:05:23;4.04;;;4.04;;
71183;SDS011;58887;51.980;4.464;2022-07-23T08:07:50;3.76;;;3.76;;
71183;SDS011;58887;51.980;4.464;2022-07-23T08:10:15;3.80;;;3.80;;
71183;SDS011;58887;51.980;4.464;2022-07-23T08:12:45;4.04;;;4.04;;
71183;SDS011;58887;51.980;4.464;2022-07-23T08:15:15;4.16;;;4.16;;
71183;SDS011;58887;51.980;4.464;2022-07-23T08:17:42;3.77;;;3.77;;
71183;SDS011;58887;51.980;4.464;2022-07-23T08:20:08;3.72;;;3.72;;
71183;SDS011;58887;51.980;4.464;2022-07-23T08:22:42;3.86;;;3.86;;
71183;SDS011;58887;51.980;4.464;2022-07-23T08:25:14;4.03;;;4.03;;
71183;SDS011;58887;51.980;4.464;2022-07-23T08:27:41;3.59;;;3.59;;
71183;SDS011;58887;51.980;4.464;2022-07-23T08:30:07;3.15;;;3.15;;
71183;SDS011;58887;51.980;4.464;2022-07-23T08:32:32;3.10;;;3.10;;
71183;SDS011;58887;51.980;4.464;2022-07-23T08:34:58;3.19;;;3.19;;
71183;SDS011;58887;51.980;4.464;2022-07-23T08:37:23;2.91;;;2.91;;
71183;SDS011;58887;51.980;4.464;2022-07-23T08:39:49;2.95;;;2.95;;
71183;SDS011;58887;51.980;4.464;2022-07-23T08:42:14;3.04;;;3.04;;
71183;SDS011;58887;51.980;4.464;2022-07-23T08:44:41;2.59;;;2.59;;
71183;SDS011;58887;51.980;4.464;2022-07-23T08:47:11;2.69;;;2.69;;
71183;SDS011;58887;51.980;4.464;2022-07-23T08:49:38;2.81;;;2.81;;
71183;SDS011;58887;51.980;4.464;2022-07-23T08:52:04;2.62;;;2.62;;
71183;SDS011;58887;51.980;4.464;2022-07-23T08:54:31;2.57;;;2.57;;
71183;SDS011;58887;51.980;4.464;2022-07-23T08:56:57;2.43;;;2.43;;
71183;SDS011;58887;51.980;4.464;2022-07-23T08:59:23;2.64;;;2.64;;
71183;SDS011;58887;51.980;4.464;2022-07-23T09:01:48;2.40;;;2.40;;
71183;SDS011;58887;51.980;4.464;2022-07-23T09:04:14;2.59;;;2.59;;
71183;SDS011;58887;51.980;4.464;2022-07-23T09:06:39;2.63;;;2.63;;
71183;SDS011;58887;51.980;4.464;2022-07-23T09:09:20;2.69;;;2.69;;
71183;SDS011;58887;51.980;4.464;2022-07-23T09:11:46;3.33;;;3.33;;
71183;SDS011;58887;51.980;4.464;2022-07-23T09:14:13;3.16;;;3.16;;
71183;SDS011;58887;51.980;4.464;2022-07-23T09:16:39;3.33;;;3.33;;
71183;SDS011;58887;51.980;4.464;2022-07-23T09:19:05;3.04;;;3.04;;
71183;SDS011;58887;51.980;4.464;2022-07-23T09:21:32;2.71;;;2.71;;
71183;SDS011;58887;51.980;4.464;2022-07-23T09:24:03;2.76;;;2.76;;
71183;SDS011;58887;51.980;4.464;2022-07-23T09:26:36;2.55;;;2.55;;
71183;SDS011;58887;51.980;4.464;2022-07-23T09:29:07;2.81;;;2.81;;
71183;SDS011;58887;51.980;4.464;2022-07-23T09:31:43;3.14;;;3.14;;
71183;SDS011;58887;51.980;4.464;2022-07-23T09:34:13;3.26;;;3.26;;
71183;SDS011;58887;51.980;4.464;2022-07-23T09:36:42;2.99;;;2.99;;
71183;SDS011;58887;51.980;4.464;2022-07-23T09:39:08;3.22;;;3.22;;
71183;SDS011;58887;51.980;4.464;2022-07-23T09:41:38;3.27;;;3.27;;
71183;SDS011;58887;51.980;4.464;2022-07-23T09:44:14;3.22;;;3.22;;
71183;SDS011;58887;51.980;4.464;2022-07-23T09:46:42;2.85;;;2.85;;
71183;SDS011;58887;51.980;4.464;2022-07-23T09:51:58;2.71;;;2.71;;
71183;SDS011;58887;51.980;4.464;2022-07-23T09:56:52;2.74;;;2.74;;
71183;SDS011;58887;51.980;4.464;2022-07-23T09:59:22;2.71;;;2.71;;
71183;SDS011;58887;51.980;4.464;2022-07-23T10:01:51;2.41;;;2.41;;
71183;SDS011;58887;51.980;4.464;2022-07-23T10:04:19;2.47;;;2.47;;
71183;SDS011;58887;51.980;4.464;2022-07-23T10:06:48;2.68;;;2.68;;
71183;SDS011;58887;51.980;4.464;2022-07-23T10:09:22;2.68;;;2.68;;
71183;SDS011;58887;51.980;4.464;2022-07-23T10:11:55;2.61;;;2.61;;
71183;SDS011;58887;51.980;4.464;2022-07-23T10:14:41;2.53;;;2.53;;
71183;SDS011;58887;51.980;4.464;2022-07-23T10:17:08;2.28;;;2.28;;
71183;SDS011;58887;51.980;4.464;2022-07-23T10:19:34;2.48;;;2.48;;
71183;SDS011;58887;51.980;4.464;2022-07-23T10:22:04;2.50;;;2.50;;
71183;SDS011;58887;51.980;4.464;2022-07-23T10:24:36;2.05;;;2.05;;
71183;SDS011;58887;51.980;4.464;2022-07-23T10:29:52;1.80;;;1.80;;
71183;SDS011;58887;51.980;4.464;2022-07-23T10:32:28;1.67;;;1.67;;
71183;SDS011;58887;51.980;4.464;2022-07-23T10:37:57;1.84;;;1.84;;
71183;SDS011;58887;51.980;4.464;2022-07-23T10:40:31;1.69;;;1.69;;
71183;SDS011;58887;51.980;4.464;2022-07-23T10:42:58;1.93;;;1.93;;
71183;SDS011;58887;51.980;4.464;2022-07-23T10:45:30;1.76;;;1.76;;
71183;SDS011;58887;51.980;4.464;2022-07-23T10:50:40;1.95;;;1.95;;
71183;SDS011;58887;51.980;4.464;2022-07-23T10:57:59;1.87;;;1.87;;
71183;SDS011;58887;51.980;4.464;2022-07-23T11:00:30;1.92;;;1.92;;
71183;SDS011;58887;51.980;4.464;2022-07-23T11:02:58;2.03;;;2.03;;
71183;SDS011;58887;51.980;4.464;2022-07-23T11:05:26;2.08;;;2.08;;
71183;SDS011;58887;51.980;4.464;2022-07-23T11:10:34;2.19;;;2.19;;
71183;SDS011;58887;51.980;4.464;2022-07-23T11:13:25;2.28;;;2.28;;
71183;SDS011;58887;51.980;4.464;2022-07-23T11:36:59;2.14;;;2.14;;
71183;SDS011;58887;51.980;4.464;2022-07-23T11:39:27;2.17;;;2.17;;
71183;SDS011;58887;51.980;4.464;2022-07-23T11:41:54;2.16;;;2.16;;
71183;SDS011;58887;51.980;4.464;2022-07-23T11:44:26;2.49;;;2.49;;
71183;SDS011;58887;51.980;4.464;2022-07-23T11:49:25;2.50;;;2.50;;
71183;SDS011;58887;51.980;4.464;2022-07-23T11:52:10;2.46;;;2.46;;
71183;SDS011;58887;51.980;4.464;2022-07-23T11:54:47;2.52;;;2.52;;
71183;SDS011;58887;51.980;4.464;2022-07-23T11:57:18;2.13;;;2.13;;
71183;SDS011;58887;51.980;4.464;2022-07-23T11:59:50;2.19;;;2.19;;
71183;SDS011;58887;51.980;4.464;2022-07-23T12:02:22;2.23;;;2.23;;
71183;SDS011;58887;51.980;4.464;2022-07-23T12:04:50;2.46;;;2.46;;
71183;SDS011;58887;51.980;4.464;2022-07-23T12:07:27;2.44;;;2.44;;
71183;SDS011;58887;51.980;4.464;2022-07-23T12:10:21;2.33;;;2.33;;
71183;SDS011;58887;51.980;4.464;2022-07-23T12:12:53;2.52;;;2.52;;
71183;SDS011;58887;51.980;4.464;2022-07-23T12:15:25;2.61;;;2.61;;
71183;SDS011;58887;51.980;4.464;2022-07-23T12:17:57;2.98;;;2.98;;
71183;SDS011;58887;51.980;4.464;2022-07-23T12:20:26;2.96;;;2.96;;
71183;SDS011;58887;51.980;4.464;2022-07-23T12:23:04;2.60;;;2.60;;
71183;SDS011;58887;51.980;4.464;2022-07-23T12:25:33;2.76;;;2.76;;
71183;SDS011;58887;51.980;4.464;2022-07-23T12:28:12;2.98;;;2.98;;
71183;SDS011;58887;51.980;4.464;2022-07-23T12:33:18;2.73;;;2.73;;
71183;SDS011;58887;51.980;4.464;2022-07-23T12:35:48;2.59;;;2.59;;
71183;SDS011;58887;51.980;4.464;2022-07-23T12:38:15;2.79;;;2.79;;
71183;SDS011;58887;51.980;4.464;2022-07-23T12:40:46;2.31;;;2.31;;
71183;SDS011;58887;51.980;4.464;2022-07-23T12:53:45;2.85;;;2.85;;
71183;SDS011;58887;51.980;4.464;2022-07-23T12:56:18;3.35;;;3.35;;
71183;SDS011;58887;51.980;4.464;2022-07-23T12:59:04;2.98;;;2.98;;
71183;SDS011;58887;51.980;4.464;2022-07-23T13:01:35;3.69;;;3.69;;
71183;SDS011;58887;51.980;4.464;2022-07-23T13:04:07;3.61;;;3.61;;
71183;SDS011;58887;51.980;4.464;2022-07-23T13:09:01;3.28;;;3.28;;
71183;SDS011;58887;51.980;4.464;2022-07-23T13:11:27;3.33;;;3.33;;
71183;SDS011;58887;51.980;4.464;2022-07-23T13:13:53;3.45;;;3.45;;
71183;SDS011;58887;51.980;4.464;2022-07-23T13:16:19;3.42;;;3.42;;
71183;SDS011;58887;51.980;4.464;2022-07-23T13:18:44;3.75;;;3.75;;
71183;SDS011;58887;51.980;4.464;2022-07-23T13:21:10;4.05;;;4.05;;
71183;SDS011;58887;51.980;4.464;2022-07-23T13:23:36;3.88;;;3.88;;
71183;SDS011;58887;51.980;4.464;2022-07-23T13:26:02;3.61;;;3.61;;
71183;SDS011;58887;51.980;4.464;2022-07-23T13:28:28;3.67;;;3.67;;
71183;SDS011;58887;51.980;4.464;2022-07-23T13:30:53;3.30;;;3.30;;
71183;SDS011;58887;51.980;4.464;2022-07-23T13:33:19;3.36;;;3.36;;
71183;SDS011;58887;51.980;4.464;2022-07-23T13:35:46;3.35;;;3.35;;
71183;SDS011;58887;51.980;4.464;2022-07-23T13:38:12;3.19;;;3.19;;
71183;SDS011;58887;51.980;4.464;2022-07-23T13:40:39;3.30;;;3.30;;
71183;SDS011;58887;51.980;4.464;2022-07-23T13:43:07;3.20;;;3.20;;
71183;SDS011;58887;51.980;4.464;2022-07-23T13:45:34;3.31;;;3.31;;
71183;SDS011;58887;51.980;4.464;2022-07-23T13:48:01;3.16;;;3.16;;
71183;SDS011;58887;51.980;4.464;2022-07-23T13:50:27;3.28;;;3.28;;
71183;SDS011;58887;51.980;4.464;2022-07-23T13:52:53;3.55;;;3.55;;
71183;SDS011;58887;51.980;4.464;2022-07-23T13:55:18;3.21;;;3.21;;
71183;SDS011;58887;51.980;4.464;2022-07-23T13:57:43;3.47;;;3.47;;
71183;SDS011;58887;51.980;4.464;2022-07-23T14:00:09;3.17;;;3.17;;
71183;SDS011;58887;51.980;4.464;2022-07-23T14:02:37;3.19;;;3.19;;
71183;SDS011;58887;51.980;4.464;2022-07-23T14:05:05;3.26;;;3.26;;
71183;SDS011;58887;51.980;4.464;2022-07-23T14:07:33;3.16;;;3.16;;
71183;SDS011;58887;51.980;4.464;2022-07-23T14:10:02;2.97;;;2.97;;
71183;SDS011;58887;51.980;4.464;2022-07-23T14:12:29;2.97;;;2.97;;
71183;SDS011;58887;51.980;4.464;2022-07-23T14:14:54;2.93;;;2.93;;
71183;SDS011;58887;51.980;4.464;2022-07-23T14:17:20;2.93;;;2.93;;
71183;SDS011;58887;51.980;4.464;2022-07-23T14:19:46;3.22;;;3.22;;
71183;SDS011;58887;51.980;4.464;2022-07-23T14:22:11;3.27;;;3.27;;
71183;SDS011;58887;51.980;4.464;2022-07-23T14:24:37;3.96;;;3.96;;
71183;SDS011;58887;51.980;4.464;2022-07-23T14:27:02;3.17;;;3.17;;
71183;SDS011;58887;51.980;4.464;2022-07-23T14:29:29;3.48;;;3.48;;
71183;SDS011;58887;51.980;4.464;2022-07-23T14:31:55;2.96;;;2.96;;
71183;SDS011;58887;51.980;4.464;2022-07-23T14:34:20;3.32;;;3.32;;
71183;SDS011;58887;51.980;4.464;2022-07-23T14:36:46;3.44;;;3.44;;
71183;SDS011;58887;51.980;4.464;2022-07-23T14:39:12;3.12;;;3.12;;
71183;SDS011;58887;51.980;4.464;2022-07-23T14:41:37;3.12;;;3.12;;
71183;SDS011;58887;51.980;4.464;2022-07-23T14:44:04;2.99;;;2.99;;
71183;SDS011;58887;51.980;4.464;2022-07-23T14:46:30;3.10;;;3.10;;
71183;SDS011;58887;51.980;4.464;2022-07-23T14:48:55;2.92;;;2.92;;
71183;SDS011;58887;51.980;4.464;2022-07-23T14:51:21;2.92;;;2.92;;
71183;SDS011;58887;51.980;4.464;2022-07-23T14:53:46;3.25;;;3.25;;
71183;SDS011;58887;51.980;4.464;2022-07-23T14:56:11;3.06;;;3.06;;
71183;SDS011;58887;51.980;4.464;2022-07-23T14:58:38;3.12;;;3.12;;
71183;SDS011;58887;51.980;4.464;2022-07-23T15:01:05;3.40;;;3.40;;
71183;SDS011;58887;51.980;4.464;2022-07-23T15:03:31;3.38;;;3.38;;
71183;SDS011;58887;51.980;4.464;2022-07-23T15:05:56;3.16;;;3.16;;
71183;SDS011;58887;51.980;4.464;2022-07-23T15:08:22;2.95;;;2.95;;
71183;SDS011;58887;51.980;4.464;2022-07-23T15:10:47;3.18;;;3.18;;
71183;SDS011;58887;51.980;4.464;2022-07-23T15:13:13;3.42;;;3.42;;
71183;SDS011;58887;51.980;4.464;2022-07-23T15:15:38;3.57;;;3.57;;
71183;SDS011;58887;51.980;4.464;2022-07-23T15:18:03;3.33;;;3.33;;
71183;SDS011;58887;51.980;4.464;2022-07-23T15:20:29;3.42;;;3.42;;
71183;SDS011;58887;51.980;4.464;2022-07-23T15:22:57;3.43;;;3.43;;
71183;SDS011;58887;51.980;4.464;2022-07-23T15:25:23;2.96;;;2.96;;
71183;SDS011;58887;51.980;4.464;2022-07-23T15:27:49;3.06;;;3.06;;
71183;SDS011;58887;51.980;4.464;2022-07-23T15:30:14;3.02;;;3.02;;
71183;SDS011;58887;51.980;4.464;2022-07-23T15:32:40;3.14;;;3.14;;
71183;SDS011;58887;51.980;4.464;2022-07-23T15:35:06;3.01;;;3.01;;
71183;SDS011;58887;51.980;4.464;2022-07-23T15:37:33;3.18;;;3.18;;
71183;SDS011;58887;51.980;4.464;2022-07-23T15:40:00;2.96;;;2.96;;
71183;SDS011;58887;51.980;4.464;2022-07-23T15:42:26;2.98;;;2.98;;
71183;SDS011;58887;51.980;4.464;2022-07-23T15:44:51;2.95;;;2.95;;
71183;SDS011;58887;51.980;4.464;2022-07-23T15:47:17;3.31;;;3.31;;